createdAt,value
2018-03-22T00:00:38.614Z,1012.29
2018-03-22T00:01:38.582Z,1012.3
2018-03-22T00:02:38.553Z,1012.26
2018-03-22T00:03:38.524Z,1012.28
2018-03-22T00:04:38.491Z,1012.25
2018-03-22T00:05:38.469Z,1012.23
2018-03-22T00:06:38.432Z,1012.23
2018-03-22T00:07:38.401Z,1012.23
2018-03-22T00:08:38.372Z,1012.16
2018-03-22T00:09:38.342Z,1012.18
2018-03-22T00:10:38.312Z,1012.14
2018-03-22T00:11:38.280Z,1012.12
2018-03-22T00:12:38.252Z,1012.14
2018-03-22T00:13:38.220Z,1012.11
2018-03-22T00:14:38.190Z,1012.15
2018-03-22T00:15:38.158Z,1012.1
2018-03-22T00:16:38.128Z,1012.07
2018-03-22T00:17:38.099Z,1012.09
2018-03-22T00:18:38.068Z,1012.04
2018-03-22T00:19:38.037Z,1012.04
2018-03-22T00:20:38.009Z,1012
2018-03-22T00:21:37.977Z,1011.97
2018-03-22T00:22:37.966Z,1011.97
2018-03-22T00:23:37.918Z,1011.98
2018-03-22T00:24:37.886Z,1011.97
2018-03-22T00:25:37.858Z,1011.98
2018-03-22T00:26:37.825Z,1012
2018-03-22T00:27:37.796Z,1012.01
2018-03-22T00:28:37.765Z,1011.94
2018-03-22T00:29:37.734Z,1011.96
2018-03-22T00:30:37.705Z,1011.92
2018-03-22T00:31:37.675Z,1011.93
2018-03-22T00:32:37.644Z,1011.96
2018-03-22T00:33:37.615Z,1011.9
2018-03-22T00:34:37.586Z,1011.92
2018-03-22T00:35:37.553Z,1011.95
2018-03-22T00:36:37.524Z,1011.95
2018-03-22T00:37:37.490Z,1011.9
2018-03-22T00:38:37.461Z,1011.9
2018-03-22T00:39:37.430Z,1011.91
2018-03-22T00:40:37.399Z,1011.84
2018-03-22T00:41:37.370Z,1011.9
2018-03-22T00:42:37.351Z,1011.9
2018-03-22T00:43:37.310Z,1011.85
2018-03-22T00:44:37.283Z,1011.88
2018-03-22T00:45:37.249Z,1011.9
2018-03-22T00:46:37.219Z,1011.79
2018-03-22T00:47:37.188Z,1011.86
2018-03-22T00:48:37.159Z,1011.8
2018-03-22T00:49:37.127Z,1011.75
2018-03-22T00:50:37.097Z,1011.74
2018-03-22T00:51:37.073Z,1011.8
2018-03-22T00:52:37.038Z,1011.71
2018-03-22T00:53:37.013Z,1011.65
2018-03-22T00:54:36.978Z,1011.62
2018-03-22T00:55:36.946Z,1011.64
2018-03-22T00:56:36.917Z,1011.56
2018-03-22T00:57:36.886Z,1011.56
2018-03-22T00:58:36.861Z,1011.54
2018-03-22T00:59:36.825Z,1011.48
2018-03-22T01:00:36.796Z,1011.46
2018-03-22T01:01:36.766Z,1011.45
2018-03-22T01:02:36.735Z,1011.46
2018-03-22T01:03:36.705Z,1011.48
2018-03-22T01:04:36.674Z,1011.39
2018-03-22T01:05:36.644Z,1011.4
2018-03-22T01:06:36.613Z,1011.41
2018-03-22T01:07:36.584Z,1011.38
2018-03-22T01:08:36.554Z,1011.28
2018-03-22T01:09:36.520Z,1011.27
2018-03-22T01:10:36.493Z,1011.24
2018-03-22T01:11:36.462Z,1011.23
2018-03-22T01:12:36.432Z,1011.17
2018-03-22T01:13:36.402Z,1011.18
2018-03-22T01:14:36.442Z,1011.18
2018-03-22T01:15:36.340Z,1011.24
2018-03-22T01:16:36.312Z,1011.18
2018-03-22T01:17:36.281Z,1011.16
2018-03-22T01:18:36.250Z,1011.17
2018-03-22T01:19:36.219Z,1011.14
2018-03-22T01:20:36.188Z,1011.18
2018-03-22T01:21:36.159Z,1011.12
2018-03-22T01:22:36.128Z,1011.1
2018-03-22T01:23:36.100Z,1011.1
2018-03-22T01:24:36.069Z,1011.03
2018-03-22T01:25:36.039Z,1010.94
2018-03-22T01:26:36.009Z,1010.95
2018-03-22T01:27:35.979Z,1010.94
2018-03-22T01:28:35.950Z,1010.88
2018-03-22T01:29:35.918Z,1010.83
2018-03-22T01:30:35.889Z,1010.77
2018-03-22T01:31:35.857Z,1010.77
2018-03-22T01:32:35.826Z,1010.79
2018-03-22T01:33:35.798Z,1010.77
2018-03-22T01:34:35.767Z,1010.71
2018-03-22T01:35:35.739Z,1010.68
2018-03-22T01:36:35.707Z,1010.68
2018-03-22T01:37:35.677Z,1010.63
2018-03-22T01:38:35.647Z,1010.57
2018-03-22T01:39:35.616Z,1010.55
2018-03-22T01:40:35.592Z,1010.53
2018-03-22T01:41:35.555Z,1010.47
2018-03-22T01:42:35.525Z,1010.48
2018-03-22T01:43:35.496Z,1010.37
2018-03-22T01:44:35.466Z,1010.38
2018-03-22T01:45:35.437Z,1010.3
2018-03-22T01:46:35.405Z,1010.29
2018-03-22T01:47:35.376Z,1010.23
2018-03-22T01:48:35.345Z,1010.18
2018-03-22T01:49:35.317Z,1010.24
2018-03-22T01:50:35.287Z,1010.15
2018-03-22T01:51:35.255Z,1010.07
2018-03-22T01:52:35.224Z,1010.08
2018-03-22T01:53:35.193Z,1010.1
2018-03-22T01:54:35.165Z,1010.02
2018-03-22T01:55:35.135Z,1010.06
2018-03-22T01:56:35.109Z,1010.03
2018-03-22T01:57:35.074Z,1010.05
2018-03-22T01:58:35.044Z,1010
2018-03-22T01:59:35.014Z,1010.02
2018-03-22T02:00:34.986Z,1009.93
2018-03-22T02:01:34.957Z,1009.93
2018-03-22T02:02:34.924Z,1009.92
2018-03-22T02:03:34.894Z,1009.86
2018-03-22T02:04:34.863Z,1009.86
2018-03-22T02:05:34.832Z,1009.8
2018-03-22T02:06:34.802Z,1009.8
2018-03-22T02:07:34.774Z,1009.77
2018-03-22T02:08:34.750Z,1009.75
2018-03-22T02:09:34.712Z,1009.73
2018-03-22T02:10:34.681Z,1009.71
2018-03-22T02:11:34.653Z,1009.68
2018-03-22T02:12:34.621Z,1009.61
2018-03-22T02:13:34.593Z,1009.59
2018-03-22T02:14:34.563Z,1009.56
2018-03-22T02:15:34.531Z,1009.56
2018-03-22T02:16:34.502Z,1009.46
2018-03-22T02:17:34.473Z,1009.52
2018-03-22T02:18:34.443Z,1009.48
2018-03-22T02:19:34.412Z,1009.46
2018-03-22T02:20:34.383Z,1009.51
2018-03-22T02:21:34.353Z,1009.5
2018-03-22T02:22:34.323Z,1009.44
2018-03-22T02:23:34.299Z,1009.41
2018-03-22T02:24:34.263Z,1009.35
2018-03-22T02:25:34.233Z,1009.28
2018-03-22T02:26:34.203Z,1009.27
2018-03-22T02:27:34.173Z,1009.2
2018-03-22T02:28:34.142Z,1009.24
2018-03-22T02:29:34.114Z,1009.19
2018-03-22T02:30:34.083Z,1009.23
2018-03-22T02:31:34.052Z,1009.22
2018-03-22T02:32:34.023Z,1009.3
2018-03-22T02:33:33.992Z,1009.29
2018-03-22T02:34:33.963Z,1009.37
2018-03-22T02:35:33.937Z,1009.34
2018-03-22T02:36:33.905Z,1009.34
2018-03-22T02:37:33.872Z,1009.27
2018-03-22T02:38:33.847Z,1009.27
2018-03-22T02:39:33.815Z,1009.17
2018-03-22T02:40:33.784Z,1009.25
2018-03-22T02:41:33.754Z,1009.29
2018-03-22T02:42:33.724Z,1009.12
2018-03-22T02:43:33.695Z,1009.16
2018-03-22T02:44:33.664Z,1009
2018-03-22T02:45:33.634Z,1009.06
2018-03-22T02:46:33.605Z,1009.08
2018-03-22T02:47:33.575Z,1009.02
2018-03-22T02:48:33.545Z,1009.05
2018-03-22T02:49:33.516Z,1009.04
2018-03-22T02:50:33.488Z,1009.1
2018-03-22T02:51:33.454Z,1009.21
2018-03-22T02:52:33.425Z,1009.2
2018-03-22T02:53:33.394Z,1009.18
2018-03-22T02:54:33.365Z,1009.14
2018-03-22T02:55:33.334Z,1009.23
2018-03-22T02:56:33.303Z,1009.15
2018-03-22T02:57:33.274Z,1009.11
2018-03-22T02:58:33.245Z,1009.13
2018-03-22T02:59:33.216Z,1009.08
2018-03-22T03:00:33.220Z,1009.1
2018-03-22T03:01:33.158Z,1008.99
2018-03-22T03:02:33.124Z,1008.98
2018-03-22T03:03:33.094Z,1009.01
2018-03-22T03:04:33.064Z,1008.97
2018-03-22T03:05:33.037Z,1009
2018-03-22T03:06:33.009Z,1008.92
2018-03-22T03:07:32.975Z,1008.99
2018-03-22T03:08:32.944Z,1008.89
2018-03-22T03:09:32.914Z,1008.85
2018-03-22T03:10:32.884Z,1008.84
2018-03-22T03:11:32.855Z,1008.78
2018-03-22T03:12:32.824Z,1008.75
2018-03-22T03:13:32.796Z,1008.74
2018-03-22T03:14:32.764Z,1008.68
2018-03-22T03:15:32.735Z,1008.67
2018-03-22T03:16:32.706Z,1008.59
2018-03-22T03:17:32.674Z,1008.69
2018-03-22T03:18:32.644Z,1008.65
2018-03-22T03:19:32.619Z,1008.66
2018-03-22T03:20:32.585Z,1008.68
2018-03-22T03:21:32.554Z,1008.62
2018-03-22T03:22:32.525Z,1008.59
2018-03-22T03:23:32.500Z,1008.55
2018-03-22T03:24:32.466Z,1008.52
2018-03-22T03:25:32.434Z,1008.52
2018-03-22T03:26:32.404Z,1008.52
2018-03-22T03:27:32.376Z,1008.5
2018-03-22T03:28:32.345Z,1008.41
2018-03-22T03:29:32.315Z,1008.43
2018-03-22T03:30:32.286Z,1008.38
2018-03-22T03:31:32.257Z,1008.41
2018-03-22T03:32:32.224Z,1008.4
2018-03-22T03:33:32.196Z,1008.37
2018-03-22T03:34:32.174Z,1008.46
2018-03-22T03:35:32.135Z,1008.34
2018-03-22T03:36:32.104Z,1008.37
2018-03-22T03:37:32.075Z,1008.32
2018-03-22T03:38:32.046Z,1008.37
2018-03-22T03:39:32.015Z,1008.3
2018-03-22T03:40:31.984Z,1008.3
2018-03-22T03:41:31.960Z,1008.35
2018-03-22T03:42:31.927Z,1008.21
2018-03-22T03:43:31.895Z,1008.35
2018-03-22T03:44:31.865Z,1008.15
2018-03-22T03:45:32.086Z,1008.18
2018-03-22T03:46:31.810Z,1008.09
2018-03-22T03:47:31.775Z,1008.07
2018-03-22T03:48:31.746Z,1008.11
2018-03-22T03:49:31.715Z,1008.04
2018-03-22T03:50:31.684Z,1008.03
2018-03-22T03:51:31.655Z,1008
2018-03-22T03:52:31.625Z,1007.97
2018-03-22T03:53:31.595Z,1007.91
2018-03-22T03:54:31.564Z,1007.99
2018-03-22T03:55:31.535Z,1008.01
2018-03-22T03:56:31.506Z,1008.03
2018-03-22T03:57:31.475Z,1007.96
2018-03-22T03:58:31.445Z,1008.01
2018-03-22T03:59:31.417Z,1007.98
2018-03-22T04:00:31.388Z,1007.97
2018-03-22T04:01:31.356Z,1008.02
2018-03-22T04:02:31.325Z,1008.03
2018-03-22T04:03:31.295Z,1007.97
2018-03-22T04:04:31.266Z,1008.01
2018-03-22T04:05:31.235Z,1007.94
2018-03-22T04:06:31.206Z,1007.92
2018-03-22T04:07:31.175Z,1007.89
2018-03-22T04:08:31.148Z,1007.79
2018-03-22T04:09:31.119Z,1007.91
2018-03-22T04:10:31.084Z,1007.92
2018-03-22T04:11:31.055Z,1007.91
2018-03-22T04:12:31.025Z,1007.9
2018-03-22T04:13:31.049Z,1007.91
2018-03-22T04:14:30.965Z,1007.84
2018-03-22T04:15:30.934Z,1007.88
2018-03-22T04:16:30.903Z,1007.85
2018-03-22T04:17:30.874Z,1007.82
2018-03-22T04:18:30.844Z,1007.78
2018-03-22T04:19:30.815Z,1007.74
2018-03-22T04:20:30.789Z,1007.68
2018-03-22T04:21:30.756Z,1007.67
2018-03-22T04:22:30.723Z,1007.74
2018-03-22T04:23:30.692Z,1007.75
2018-03-22T04:24:30.665Z,1007.73
2018-03-22T04:25:30.631Z,1007.74
2018-03-22T04:26:30.602Z,1007.73
2018-03-22T04:27:30.574Z,1007.7
2018-03-22T04:28:30.549Z,1007.72
2018-03-22T04:29:30.511Z,1007.73
2018-03-22T04:30:30.480Z,1007.7
2018-03-22T04:31:30.450Z,1007.6
2018-03-22T04:32:30.420Z,1007.63
2018-03-22T04:33:30.393Z,1007.6
2018-03-22T04:34:30.361Z,1007.57
2018-03-22T04:35:30.329Z,1007.63
2018-03-22T04:36:30.299Z,1007.56
2018-03-22T04:37:30.269Z,1007.58
2018-03-22T04:38:30.246Z,1007.53
2018-03-22T04:39:30.208Z,1007.62
2018-03-22T04:40:30.183Z,1007.55
2018-03-22T04:41:30.148Z,1007.53
2018-03-22T04:42:30.118Z,1007.54
2018-03-22T04:43:30.091Z,1007.46
2018-03-22T04:44:30.057Z,1007.57
2018-03-22T04:45:30.026Z,1007.38
2018-03-22T04:46:30.003Z,1007.52
2018-03-22T04:47:29.967Z,1007.45
2018-03-22T04:48:29.936Z,1007.43
2018-03-22T04:49:29.906Z,1007.41
2018-03-22T04:50:29.875Z,1007.32
2018-03-22T04:51:29.846Z,1007.35
2018-03-22T04:52:29.862Z,1007.35
2018-03-22T04:53:29.785Z,1007.32
2018-03-22T04:54:29.755Z,1007.36
2018-03-22T04:55:29.725Z,1007.26
2018-03-22T04:56:29.695Z,1007.26
2018-03-22T04:57:29.665Z,1007.22
2018-03-22T04:58:29.635Z,1007.19
2018-03-22T04:59:29.604Z,1007.1
2018-03-22T05:00:29.576Z,1007.12
2018-03-22T05:01:29.544Z,1007.09
2018-03-22T05:02:29.514Z,1007.07
2018-03-22T05:03:29.488Z,1007.05
2018-03-22T05:04:29.460Z,1007.05
2018-03-22T05:05:29.427Z,1007
2018-03-22T05:06:29.394Z,1007.04
2018-03-22T05:07:29.362Z,1007.01
2018-03-22T05:08:29.974Z,1007.01
2018-03-22T05:09:29.302Z,1007.02
2018-03-22T05:10:29.272Z,1006.98
2018-03-22T05:11:29.241Z,1006.93
2018-03-22T05:12:29.211Z,1006.98
2018-03-22T05:13:29.182Z,1006.94
2018-03-22T05:14:29.149Z,1006.92
2018-03-22T05:15:29.120Z,1006.9
2018-03-22T05:16:29.089Z,1006.9
2018-03-22T05:17:29.060Z,1006.83
2018-03-22T05:18:29.028Z,1006.84
2018-03-22T05:19:28.999Z,1006.84
2018-03-22T05:20:28.968Z,1006.83
2018-03-22T05:21:28.938Z,1006.84
2018-03-22T05:22:28.907Z,1006.81
2018-03-22T05:23:28.877Z,1006.71
2018-03-22T05:24:28.846Z,1006.81
2018-03-22T05:25:28.815Z,1006.75
2018-03-22T05:26:28.785Z,1006.74
2018-03-22T05:27:28.758Z,1006.81
2018-03-22T05:28:28.724Z,1006.76
2018-03-22T05:29:28.692Z,1006.76
2018-03-22T05:30:28.661Z,1006.84
2018-03-22T05:31:28.632Z,1006.71
2018-03-22T05:32:28.611Z,1006.68
2018-03-22T05:33:28.571Z,1006.69
2018-03-22T05:34:28.649Z,1006.65
2018-03-22T05:35:28.751Z,1006.6
2018-03-22T05:36:28.479Z,1006.65
2018-03-22T05:37:28.449Z,1006.67
2018-03-22T05:38:28.418Z,1006.62
2018-03-22T05:39:28.388Z,1006.54
2018-03-22T05:40:28.356Z,1006.52
2018-03-22T05:41:28.325Z,1006.5
2018-03-22T05:42:28.295Z,1006.49
2018-03-22T05:43:28.263Z,1006.45
2018-03-22T05:44:28.233Z,1006.43
2018-03-22T05:45:28.201Z,1006.36
2018-03-22T05:46:28.171Z,1006.48
2018-03-22T05:47:28.140Z,1006.44
2018-03-22T05:48:28.110Z,1006.43
2018-03-22T05:49:28.079Z,1006.47
2018-03-22T05:50:28.048Z,1006.49
2018-03-22T05:51:28.017Z,1006.45
2018-03-22T05:52:27.986Z,1006.39
2018-03-22T05:53:27.956Z,1006.5
2018-03-22T05:54:27.923Z,1006.45
2018-03-22T05:55:27.894Z,1006.49
2018-03-22T05:56:27.862Z,1006.42
2018-03-22T05:57:27.834Z,1006.42
2018-03-22T05:58:27.801Z,1006.43
2018-03-22T05:59:27.770Z,1006.49
2018-03-22T06:00:27.740Z,1006.37
2018-03-22T06:01:27.710Z,1006.33
2018-03-22T06:02:27.678Z,1006.38
2018-03-22T06:03:27.748Z,1006.27
2018-03-22T06:04:27.617Z,1006.31
2018-03-22T06:05:27.585Z,1006.36
2018-03-22T06:06:27.555Z,1006.37
2018-03-22T06:07:27.527Z,1006.25
2018-03-22T06:08:27.514Z,1006.25
2018-03-22T06:09:27.463Z,1006.33
2018-03-22T06:10:27.432Z,1006.25
2018-03-22T06:11:27.400Z,1006.18
2018-03-22T06:12:27.377Z,1006.09
2018-03-22T06:13:27.338Z,1006.08
2018-03-22T06:14:27.309Z,1006.08
2018-03-22T06:15:27.278Z,1006.05
2018-03-22T06:16:27.245Z,1006.1
2018-03-22T06:17:27.507Z,1006.05
2018-03-22T06:18:27.598Z,1006.02
2018-03-22T06:19:27.452Z,1005.98
2018-03-22T06:20:27.123Z,1005.93
2018-03-22T06:21:27.098Z,1005.96
2018-03-22T06:22:27.063Z,1005.97
2018-03-22T06:23:27.032Z,1005.96
2018-03-22T06:24:27.001Z,1005.88
2018-03-22T06:25:26.971Z,1005.89
2018-03-22T06:26:26.940Z,1005.99
2018-03-22T06:27:26.908Z,1006.01
2018-03-22T06:28:26.877Z,1005.96
2018-03-22T06:29:26.848Z,1006.05
2018-03-22T06:30:26.817Z,1005.99
2018-03-22T06:31:26.794Z,1006
2018-03-22T06:32:26.757Z,1006.02
2018-03-22T06:33:26.727Z,1005.98
2018-03-22T06:34:26.695Z,1006.03
2018-03-22T06:35:26.665Z,1005.94
2018-03-22T06:36:26.633Z,1005.96
2018-03-22T06:37:26.604Z,1005.93
2018-03-22T06:38:26.573Z,1005.92
2018-03-22T06:39:26.541Z,1005.92
2018-03-22T06:40:26.512Z,1005.95
2018-03-22T06:41:26.480Z,1005.95
2018-03-22T06:42:26.451Z,1005.88
2018-03-22T06:43:26.421Z,1005.89
2018-03-22T06:44:26.390Z,1005.88
2018-03-22T06:45:26.360Z,1005.77
2018-03-22T06:46:26.363Z,1005.8
2018-03-22T06:47:26.309Z,1005.78
2018-03-22T06:48:26.267Z,1005.8
2018-03-22T06:49:26.237Z,1005.77
2018-03-22T06:50:26.210Z,1005.69
2018-03-22T06:51:26.176Z,1005.68
2018-03-22T06:52:26.145Z,1005.67
2018-03-22T06:53:26.115Z,1005.67
2018-03-22T06:54:26.085Z,1005.68
2018-03-22T06:55:26.055Z,1005.66
2018-03-22T06:56:26.025Z,1005.61
2018-03-22T06:57:25.994Z,1005.56
2018-03-22T06:58:25.964Z,1005.68
2018-03-22T06:59:25.933Z,1005.61
2018-03-22T07:00:25.901Z,1005.73
2018-03-22T07:01:25.988Z,1005.68
2018-03-22T07:02:25.841Z,1005.7
2018-03-22T07:03:25.816Z,1005.65
2018-03-22T07:04:25.880Z,1005.71
2018-03-22T07:05:25.750Z,1005.75
2018-03-22T07:06:25.847Z,1005.78
2018-03-22T07:07:25.690Z,1005.66
2018-03-22T07:08:25.659Z,1005.67
2018-03-22T07:09:25.648Z,1005.59
2018-03-22T07:10:25.609Z,1005.65
2018-03-22T07:11:25.665Z,1005.63
2018-03-22T07:12:25.539Z,1005.63
2018-03-22T07:13:25.508Z,1005.6
2018-03-22T07:14:25.482Z,1005.57
2018-03-22T07:15:25.447Z,1005.64
2018-03-22T07:16:25.416Z,1005.69
2018-03-22T07:17:25.387Z,1005.74
2018-03-22T07:18:25.356Z,1005.65
2018-03-22T07:19:25.337Z,1005.67
2018-03-22T07:20:25.296Z,1005.63
2018-03-22T07:21:25.266Z,1005.63
2018-03-22T07:22:25.235Z,1005.7
2018-03-22T07:23:25.205Z,1005.74
2018-03-22T07:24:25.173Z,1005.64
2018-03-22T07:25:25.150Z,1005.68
2018-03-22T07:26:25.116Z,1005.63
2018-03-22T07:27:25.084Z,1005.66
2018-03-22T07:28:25.053Z,1005.64
2018-03-22T07:29:25.022Z,1005.55
2018-03-22T07:30:24.991Z,1005.53
2018-03-22T07:31:24.962Z,1005.47
2018-03-22T07:32:24.931Z,1005.52
2018-03-22T07:33:24.899Z,1005.56
2018-03-22T07:34:24.870Z,1005.47
2018-03-22T07:35:24.883Z,1005.48
2018-03-22T07:36:24.854Z,1005.44
2018-03-22T07:37:24.778Z,1005.46
2018-03-22T07:38:24.759Z,1005.45
2018-03-22T07:39:24.718Z,1005.41
2018-03-22T07:40:24.685Z,1005.43
2018-03-22T07:41:24.657Z,1005.49
2018-03-22T07:42:24.628Z,1005.46
2018-03-22T07:43:24.597Z,1005.43
2018-03-22T07:44:24.568Z,1005.42
2018-03-22T07:45:24.534Z,1005.4
2018-03-22T07:46:24.534Z,1005.39
2018-03-22T07:47:24.474Z,1005.34
2018-03-22T07:48:24.443Z,1005.36
2018-03-22T07:49:24.418Z,1005.38
2018-03-22T07:50:24.458Z,1005.33
2018-03-22T07:51:24.354Z,1005.4
2018-03-22T07:52:24.323Z,1005.4
2018-03-22T07:53:24.401Z,1005.39
2018-03-22T07:54:24.551Z,1005.41
2018-03-22T07:55:24.233Z,1005.31
2018-03-22T07:56:24.203Z,1005.4
2018-03-22T07:57:24.258Z,1005.38
2018-03-22T07:58:24.144Z,1005.39
2018-03-22T07:59:24.112Z,1005.34
2018-03-22T08:00:24.087Z,1005.32
2018-03-22T08:01:24.052Z,1005.3
2018-03-22T08:02:24.022Z,1005.32
2018-03-22T08:03:23.990Z,1005.3
2018-03-22T08:04:24.102Z,1005.27
2018-03-22T08:05:23.943Z,1005.26
2018-03-22T08:06:24.180Z,1005.24
2018-03-22T08:07:23.868Z,1005.27
2018-03-22T08:08:23.840Z,1005.19
2018-03-22T08:09:23.822Z,1005.22
2018-03-22T08:10:23.779Z,1005.18
2018-03-22T08:11:23.748Z,1005.15
2018-03-22T08:12:23.793Z,1005.14
2018-03-22T08:13:23.688Z,1005.13
2018-03-22T08:14:23.662Z,1005.11
2018-03-22T08:15:23.628Z,1005.16
2018-03-22T08:16:23.599Z,1005.24
2018-03-22T08:17:23.568Z,1005.03
2018-03-22T08:18:23.537Z,1005.12
2018-03-22T08:19:23.508Z,1005.1
2018-03-22T08:20:23.479Z,1005.08
2018-03-22T08:21:23.447Z,1005.07
2018-03-22T08:22:23.419Z,1005.06
2018-03-22T08:23:23.488Z,1005.09
2018-03-22T08:24:23.358Z,1005.06
2018-03-22T08:25:23.329Z,1005.02
2018-03-22T08:26:23.299Z,1005
2018-03-22T08:27:23.269Z,1004.99
2018-03-22T08:28:23.239Z,1004.95
2018-03-22T08:29:23.258Z,1005.04
2018-03-22T08:30:23.183Z,1004.98
2018-03-22T08:31:23.148Z,1004.97
2018-03-22T08:32:23.119Z,1004.84
2018-03-22T08:33:23.090Z,1004.94
2018-03-22T08:34:23.059Z,1004.86
2018-03-22T08:35:23.030Z,1004.83
2018-03-22T08:36:22.999Z,1004.82
2018-03-22T08:37:22.969Z,1004.89
2018-03-22T08:38:22.940Z,1004.74
2018-03-22T08:39:22.910Z,1004.76
2018-03-22T08:40:22.879Z,1004.71
2018-03-22T08:41:22.921Z,1004.76
2018-03-22T08:42:22.823Z,1004.72
2018-03-22T08:43:22.792Z,1004.73
2018-03-22T08:44:22.762Z,1004.75
2018-03-22T08:45:22.733Z,1004.64
2018-03-22T08:46:22.704Z,1004.72
2018-03-22T08:47:22.679Z,1004.69
2018-03-22T08:48:22.644Z,1004.68
2018-03-22T08:49:22.614Z,1004.73
2018-03-22T08:50:22.684Z,1004.66
2018-03-22T08:51:22.556Z,1004.74
2018-03-22T08:52:22.528Z,1004.73
2018-03-22T08:53:22.495Z,1004.66
2018-03-22T08:54:22.465Z,1004.71
2018-03-22T08:55:22.436Z,1004.68
2018-03-22T08:56:22.405Z,1004.69
2018-03-22T08:57:22.523Z,1004.7
2018-03-22T08:58:22.566Z,1004.69
2018-03-22T08:59:22.472Z,1004.62
2018-03-22T09:00:22.301Z,1004.59
2018-03-22T09:01:22.258Z,1004.61
2018-03-22T09:02:22.229Z,1004.65
2018-03-22T09:03:22.199Z,1004.68
2018-03-22T09:04:22.169Z,1004.72
2018-03-22T09:05:22.157Z,1004.64
2018-03-22T09:06:22.111Z,1004.69
2018-03-22T09:07:22.080Z,1004.68
2018-03-22T09:08:22.049Z,1004.74
2018-03-22T09:09:22.022Z,1004.73
2018-03-22T09:10:21.991Z,1004.73
2018-03-22T09:11:22.183Z,1004.71
2018-03-22T09:12:21.933Z,1004.74
2018-03-22T09:13:21.903Z,1004.7
2018-03-22T09:14:22.273Z,1004.65
2018-03-22T09:15:22.033Z,1004.7
2018-03-22T09:16:21.826Z,1004.64
2018-03-22T09:17:21.784Z,1004.66
2018-03-22T09:18:21.934Z,1004.53
2018-03-22T09:19:21.948Z,1004.56
2018-03-22T09:20:22.293Z,1004.72
2018-03-22T09:21:22.144Z,1004.58
2018-03-22T09:22:21.933Z,1004.56
2018-03-22T09:23:21.608Z,1004.57
2018-03-22T09:24:21.579Z,1004.42
2018-03-22T09:25:21.549Z,1004.5
2018-03-22T09:26:21.519Z,1004.52
2018-03-22T09:27:21.496Z,1004.54
2018-03-22T09:28:21.460Z,1004.53
2018-03-22T09:29:21.435Z,1004.56
2018-03-22T09:30:21.406Z,1004.56
2018-03-22T09:31:21.373Z,1004.5
2018-03-22T09:32:21.343Z,1004.6
2018-03-22T09:33:21.324Z,1004.51
2018-03-22T09:34:21.285Z,1004.55
2018-03-22T09:35:21.255Z,1004.48
2018-03-22T09:36:21.227Z,1004.55
2018-03-22T09:37:21.203Z,1004.47
2018-03-22T09:38:21.168Z,1004.3
2018-03-22T09:39:21.140Z,1004.46
2018-03-22T09:40:21.111Z,1004.45
2018-03-22T09:41:21.080Z,1004.42
2018-03-22T09:42:21.054Z,1004.41
2018-03-22T09:43:21.028Z,1004.3
2018-03-22T09:44:20.999Z,1004.3
2018-03-22T09:45:20.966Z,1004.33
2018-03-22T09:46:20.936Z,1004.32
2018-03-22T09:47:20.909Z,1004.38
2018-03-22T09:48:20.892Z,1004.32
2018-03-22T09:49:20.851Z,1004.44
2018-03-22T09:50:20.823Z,1004.37
2018-03-22T09:51:20.794Z,1004.31
2018-03-22T09:52:20.767Z,1004.33
2018-03-22T09:53:20.788Z,1004.39
2018-03-22T09:54:20.708Z,1004.34
2018-03-22T09:55:20.678Z,1004.36
2018-03-22T09:56:20.650Z,1004.39
2018-03-22T09:57:20.621Z,1004.31
2018-03-22T09:58:20.593Z,1004.5
2018-03-22T09:59:20.565Z,1004.34
2018-03-22T10:00:20.535Z,1004.37
2018-03-22T10:01:20.508Z,1004.35
2018-03-22T10:02:20.480Z,1004.28
2018-03-22T10:03:20.449Z,1004.3
2018-03-22T10:04:20.422Z,1004.31
2018-03-22T10:05:20.393Z,1004.36
2018-03-22T10:06:20.495Z,1004.33
2018-03-22T10:07:20.336Z,1004.37
2018-03-22T10:08:20.307Z,1004.45
2018-03-22T10:09:20.279Z,1004.39
2018-03-22T10:10:20.250Z,1004.39
2018-03-22T10:11:20.222Z,1004.4
2018-03-22T10:12:20.194Z,1004.34
2018-03-22T10:13:20.164Z,1004.27
2018-03-22T10:14:20.135Z,1004.26
2018-03-22T10:15:20.107Z,1004.19
2018-03-22T10:16:20.103Z,1004.19
2018-03-22T10:17:20.052Z,1004.27
2018-03-22T10:18:20.070Z,1004.19
2018-03-22T10:19:19.996Z,1004.24
2018-03-22T10:20:19.967Z,1004.24
2018-03-22T10:21:19.939Z,1004.36
2018-03-22T10:22:19.911Z,1004.24
2018-03-22T10:23:19.884Z,1004.23
2018-03-22T10:24:19.856Z,1004.14
2018-03-22T10:25:19.973Z,1004.19
2018-03-22T10:26:19.799Z,1004.12
2018-03-22T10:27:19.771Z,1004.17
2018-03-22T10:28:19.742Z,1004.18
2018-03-22T10:29:19.714Z,1004.18
2018-03-22T10:30:19.685Z,1004.15
2018-03-22T10:31:19.990Z,1004.14
2018-03-22T10:32:19.698Z,1004.1
2018-03-22T10:33:19.601Z,1004.06
2018-03-22T10:34:19.575Z,1004.04
2018-03-22T10:35:19.682Z,1004.05
2018-03-22T10:36:19.640Z,1004.01
2018-03-22T10:37:19.489Z,1003.99
2018-03-22T10:38:19.460Z,1003.99
2018-03-22T10:39:19.561Z,1003.91
2018-03-22T10:40:19.409Z,1003.94
2018-03-22T10:41:19.380Z,1003.95
2018-03-22T10:42:19.348Z,1004.01
2018-03-22T10:43:19.320Z,1004.05
2018-03-22T10:44:19.292Z,1004.01
2018-03-22T10:45:19.262Z,1004.03
2018-03-22T10:46:19.236Z,1003.99
2018-03-22T10:47:19.253Z,1003.98
2018-03-22T10:48:19.179Z,1003.96
2018-03-22T10:49:19.149Z,1003.94
2018-03-22T10:50:19.123Z,1003.93
2018-03-22T10:51:19.359Z,1003.91
2018-03-22T10:52:19.081Z,1003.93
2018-03-22T10:53:19.096Z,1003.9
2018-03-22T10:54:19.007Z,1003.91
2018-03-22T10:55:18.979Z,1003.87
2018-03-22T10:56:18.953Z,1003.87
2018-03-22T10:57:18.925Z,1003.91
2018-03-22T10:58:18.895Z,1003.83
2018-03-22T10:59:18.867Z,1003.88
2018-03-22T11:00:18.839Z,1003.96
2018-03-22T11:01:18.811Z,1003.83
2018-03-22T11:02:18.783Z,1003.93
2018-03-22T11:03:18.755Z,1003.93
2018-03-22T11:04:18.729Z,1003.9
2018-03-22T11:05:18.697Z,1003.95
2018-03-22T11:06:18.669Z,1003.92
2018-03-22T11:07:18.641Z,1003.88
2018-03-22T11:08:18.616Z,1003.82
2018-03-22T11:09:18.584Z,1003.89
2018-03-22T11:10:18.556Z,1003.87
2018-03-22T11:11:18.527Z,1003.85
2018-03-22T11:12:18.498Z,1003.81
2018-03-22T11:13:18.470Z,1003.77
2018-03-22T11:14:18.441Z,1003.74
2018-03-22T11:15:18.452Z,1003.76
2018-03-22T11:16:18.385Z,1003.7
2018-03-22T11:17:18.356Z,1003.72
2018-03-22T11:18:18.327Z,1003.71
2018-03-22T11:19:18.301Z,1003.72
2018-03-22T11:20:18.271Z,1003.73
2018-03-22T11:21:18.242Z,1003.68
2018-03-22T11:22:18.215Z,1003.69
2018-03-22T11:23:18.186Z,1003.66
2018-03-22T11:24:18.157Z,1003.75
2018-03-22T11:25:18.129Z,1003.7
2018-03-22T11:26:18.105Z,1003.7
2018-03-22T11:27:18.072Z,1003.67
2018-03-22T11:28:18.050Z,1003.65
2018-03-22T11:29:18.017Z,1003.62
2018-03-22T11:30:17.988Z,1003.62
2018-03-22T11:31:17.959Z,1003.61
2018-03-22T11:32:17.932Z,1003.63
2018-03-22T11:33:17.908Z,1003.57
2018-03-22T11:34:17.874Z,1003.61
2018-03-22T11:35:17.845Z,1003.62
2018-03-22T11:36:17.818Z,1003.61
2018-03-22T11:37:17.790Z,1003.59
2018-03-22T11:38:17.762Z,1003.54
2018-03-22T11:39:17.733Z,1003.56
2018-03-22T11:40:17.705Z,1003.56
2018-03-22T11:41:17.687Z,1003.54
2018-03-22T11:42:17.655Z,1003.48
2018-03-22T11:43:17.621Z,1003.44
2018-03-22T11:44:17.593Z,1003.43
2018-03-22T11:45:17.566Z,1003.5
2018-03-22T11:46:17.537Z,1003.49
2018-03-22T11:47:17.509Z,1003.49
2018-03-22T11:48:17.482Z,1003.51
2018-03-22T11:49:17.453Z,1003.46
2018-03-22T11:50:17.425Z,1003.45
2018-03-22T11:51:17.397Z,1003.47
2018-03-22T11:52:17.369Z,1003.51
2018-03-22T11:53:17.343Z,1003.46
2018-03-22T11:54:17.314Z,1003.47
2018-03-22T11:55:17.286Z,1003.46
2018-03-22T11:56:17.256Z,1003.42
2018-03-22T11:57:17.230Z,1003.49
2018-03-22T11:58:17.201Z,1003.47
2018-03-22T11:59:17.175Z,1003.53
2018-03-22T12:00:17.146Z,1003.5
2018-03-22T12:01:17.122Z,1003.46
2018-03-22T12:02:17.092Z,1003.52
2018-03-22T12:03:17.063Z,1003.55
2018-03-22T12:04:17.034Z,1003.53
2018-03-22T12:05:17.011Z,1003.45
2018-03-22T12:06:16.979Z,1003.5
2018-03-22T12:07:16.955Z,1003.47
2018-03-22T12:08:16.925Z,1003.48